Flight Track Log - Related Links

Times and Time Zones

All times are in EDT time to prevent confusion due to time zone crossing. See the FDX9121 flight status page for this flight to view local times or setup timezone preferences in your user account.

Time Position Orientation Groundspeed Altitude Reporting Facility
EDT Latitude Longitude Course Direction KTS MPH feet Rate Location/Type
Fri 12:12:02 PM 53.2500 -113.5500 136° Southeast 170 196 4,500  Level Edmonton Center
Fri 12:13:12 PM 53.2120 -113.4430 136° Southeast 287 330 6,900 2,629 Climbing FlightAware ADS-B
Fri 12:13:47 PM 53.1740 -113.3830 137° Southeast 300 345 9,100 3,450 Climbing FlightAware ADS-B
Fri 12:14:32 PM 53.1280 -113.3080 136° Southeast 313 360 11,500 2,682 Climbing FlightAware ADS-B
Fri 12:15:12 PM 53.0840 -113.2370 136° Southeast 368 423 12,900 2,550 Climbing FlightAware ADS-B
Fri 12:15:52 PM 53.0320 -113.1520 135° Southeast 400 460 14,900 3,247 Climbing FlightAware ADS-B
Fri 12:16:37 PM 52.9710 -113.0530 136° Southeast 416 479 17,500 3,318 Climbing FlightAware ADS-B
Fri 12:17:17 PM 52.9140 -112.9630 136° Southeast 428 493 19,600 3,106 Climbing FlightAware ADS-B
Fri 12:18:02 PM 52.8490 -112.8590 136° Southeast 444 511 21,900 2,894 Climbing FlightAware ADS-B
Fri 12:18:42 PM 52.7890 -112.7640 136° Southeast 454 522 23,700 2,475 Climbing FlightAware ADS-B
Fri 12:19:22 PM 52.7270 -112.6660 136° Southeast 468 539 25,200 2,259 Climbing FlightAware ADS-B
Fri 12:20:07 PM 52.6560 -112.5540 136° Southeast 479 551 26,900 2,188 Climbing FlightAware ADS-B
Fri 12:20:47 PM 52.5910 -112.4530 137° Southeast 485 558 28,300 2,118 Climbing FlightAware ADS-B
Fri 12:21:32 PM 52.5190 -112.3400 136° Southeast 489 563 29,900 2,188 Climbing FlightAware ADS-B
Fri 12:22:12 PM 52.4520 -112.2360 137° Southeast 489 563 31,400 2,175 Climbing FlightAware ADS-B
Fri 12:22:52 PM 52.3860 -112.1340 137° Southeast 490 564 32,800 1,976 Climbing FlightAware ADS-B
Fri 12:23:37 PM 52.3120 -112.0200 137° Southeast 491 565 34,200 1,835 Climbing FlightAware ADS-B
Fri 12:24:17 PM 52.2470 -111.9210 137° Southeast 490 564 35,400 1,624 Climbing FlightAware ADS-B
Fri 12:25:02 PM 52.1700 -111.8050 137° Southeast 487 560 36,500 1,129 Climbing FlightAware ADS-B
Fri 12:25:42 PM 52.1080 -111.7110 137° Southeast 489 563 37,000 400 Climbing FlightAware ADS-B
Fri 12:26:17 PM 52.0460 -111.6150 136° Southeast 485 558 37,000  Level FlightAware ADS-B
Fri 12:27:07 PM 51.9630 -111.4910 137° Southeast 487 560 37,000  Level FlightAware ADS-B
Fri 12:27:42 PM 51.9040 -111.4040 138° Southeast 486 559 37,000  Level FlightAware ADS-B
Fri 12:28:27 PM 51.8300 -111.2940 137° Southeast 484 557 37,000  Level FlightAware ADS-B
Fri 12:29:12 PM 51.7570 -111.1860 137° Southeast 484 557 37,000  Level FlightAware ADS-B
Fri 12:29:52 PM 51.6900 -111.0860 137° Southeast 484 557 37,000  Level FlightAware ADS-B
Fri 12:30:37 PM 51.6170 -110.9790 138° Southeast 484 557 37,000  Level FlightAware ADS-B
Fri 12:31:17 PM 51.5490 -110.8800 138° Southeast 480 552 37,000  Level FlightAware ADS-B
Fri 12:32:02 PM 51.4760 -110.7730 138° Southeast 481 554 37,000  Level FlightAware ADS-B
Fri 12:32:37 PM 51.4290 -110.7030 137° Southeast 481 554 37,000  Level FlightAware ADS-B
Fri 12:33:22 PM 51.3440 -110.5820 138° Southeast 481 554 37,000  Level FlightAware ADS-B
Fri 12:34:07 PM 51.2700 -110.4760 138° Southeast 481 554 37,000  Level FlightAware ADS-B
Fri 12:34:47 PM 51.1980 -110.3730 138° Southeast 482 555 37,000  Level FlightAware ADS-B
Fri 12:35:27 PM 51.1330 -110.2800 138° Southeast 481 554 37,000  Level FlightAware ADS-B
Fri 12:36:12 PM 51.0680 -110.1830 137° Southeast 481 554 37,000  Level FlightAware ADS-B
Fri 12:36:52 PM 51.0130 -110.1010 137° Southeast 481 554 37,000  Level FlightAware ADS-B
Fri 12:37:37 PM 50.9160 -109.9730 140° Southeast 479 551 37,000  Level FlightAware ADS-B
Fri 12:38:27 PM 50.8330 -109.8610 140° Southeast 485 558 37,000  Level FlightAware ADS-B
Fri 12:39:07 PM 50.7740 -109.7830 140° Southeast 485 558 37,000  Level FlightAware ADS-B
Fri 12:39:57 PM 50.7010 -109.6870 140° Southeast 485 558 37,000  Level FlightAware ADS-B
Fri 12:40:52 PM 50.5840 -109.5340 140° Southeast 482 555 37,000  Level FlightAware ADS-B
Fri 12:41:32 PM 50.5090 -109.4380 141° Southeast 485 558 37,000  Level FlightAware ADS-B
Fri 12:42:12 PM 50.4510 -109.3610 140° Southeast 485 558 37,000  Level FlightAware ADS-B
Fri 12:42:52 PM 50.3930 -109.2840 140° Southeast 485 558 37,000  Level FlightAware ADS-B
Fri 12:43:42 PM 50.3200 -109.1880 140° Southeast 485 558 37,000 1,133 Level FlightAware ADS-B
Fri 12:44:22 PM 50.2190 -109.0620 141° Southeast 479 551 38,700 1,520 Climbing FlightAware ADS-B
Fri 12:44:57 PM 50.1650 -108.9900 139° Southeast 479 551 38,900 225 Climbing FlightAware ADS-B
Fri 12:45:42 PM 50.0800 -108.8830 141° Southeast 483 556 39,000 67 Climbing FlightAware ADS-B
Fri 12:46:27 PM 49.9960 -108.7760 141° Southeast 482 555 39,000  Level FlightAware ADS-B
Fri 12:47:02 PM 49.9430 -108.7060 140° Southeast 482 555 39,000  Level FlightAware ADS-B
Fri 12:47:52 PM 49.8570 -108.6000 142° Southeast 479 551 39,000  Level FlightAware ADS-B
Fri 12:48:32 PM 49.7990 -108.5250 140° Southeast 479 551 39,000  Level FlightAware ADS-B
Fri 12:49:12 PM 49.7410 -108.4500 140° Southeast 479 551 39,000  Level FlightAware ADS-B
Fri 12:49:52 PM 49.6840 -108.3750 140° Southeast 479 551 39,000  Level FlightAware ADS-B
Fri 12:50:32 PM 49.6260 -108.3000 140° Southeast 479 551 39,000  Level FlightAware ADS-B
Fri 12:51:22 PM 49.5540 -108.2070 140° Southeast 479 551 39,000  Level FlightAware ADS-B
Fri 12:52:02 PM 49.4960 -108.1320 140° Southeast 479 551 39,000  Level FlightAware ADS-B
Fri 12:52:42 PM 49.4380 -108.0570 140° Southeast 479 551 39,000  Level FlightAware ADS-B
Fri 12:53:22 PM 49.3800 -107.9830 140° Southeast 479 551 39,000  Level FlightAware ADS-B
Fri 12:54:02 PM 49.3230 -107.9090 140° Southeast 479 551 39,000  Level FlightAware ADS-B
Fri 12:54:52 PM 49.2510 -107.8160 140° Southeast 479 551 39,000  Level FlightAware ADS-B
Fri 12:55:32 PM 49.1930 -107.7420 140° Southeast 479 551 39,000  Level FlightAware ADS-B
Fri 12:56:12 PM 49.1350 -107.6680 140° Southeast 479 551 39,000  Level FlightAware ADS-B
Fri 12:56:52 PM 49.0770 -107.5940 140° Southeast 479 551 39,000  Level FlightAware ADS-B
Fri 12:57:16 PM 48.8500 -107.4000 140° Southeast 480 552 39,000  Level Winnipeg Center
Fri 12:58:02 PM 48.7500 -107.2833 142° Southeast 480 552 39,000  Level Edmonton Center
Fri 12:58:32 PM 48.7328 -107.2308 116° Southeast 482 555 39,000 -66 Level Salt Lake Center
Fri 12:59:33 PM 48.6281 -107.1067 142° Southeast 481 554 38,900  Descending Salt Lake Center
Fri 01:00:35 PM 48.5217 -106.9814 142° Southeast 483 556 39,000 48 Climbing Salt Lake Center
Fri 01:01:37 PM 48.3928 -106.8328 143° Southeast 487 560 39,000  Level Salt Lake Center
Fri 01:02:38 PM 48.2867 -106.7103 142° Southeast 486 559 39,000  Level Salt Lake Center
Fri 01:03:40 PM 48.1819 -106.5844 141° Southeast 485 558 39,000  Level Salt Lake Center
Fri 01:04:42 PM 48.0950 -106.4267 129° Southeast 491 565 39,000  Level Salt Lake Center
Fri 01:05:43 PM 48.0078 -106.2744 131° Southeast 489 563 39,000  Level Salt Lake Center
Fri 01:06:45 PM 47.9194 -106.1208 131° Southeast 488 562 39,000  Level Salt Lake Center
Fri 01:07:46 PM 47.8319 -105.9700 131° Southeast 486 559 39,000  Level Salt Lake Center
Fri 01:08:48 PM 47.7411 -105.8208 132° Southeast 488 562 39,000  Level Salt Lake Center
Fri 01:09:49 PM 47.6342 -105.6431 132° Southeast 487 560 39,000  Level Salt Lake Center
Fri 01:10:51 PM 47.5436 -105.4933 132° Southeast 489 563 39,000  Level Salt Lake Center
Fri 01:11:53 PM 47.4519 -105.3431 132° Southeast 494 568 39,000 -49 Level Salt Lake Center
Fri 01:12:54 PM 47.3608 -105.1953 132° Southeast 492 566 38,900  Descending Salt Lake Center
Fri 01:13:56 PM 47.2708 -105.0494 132° Southeast 489 563 39,000 49 Climbing Salt Lake Center
Fri 01:14:57 PM 47.1794 -104.9022 132° Southeast 489 563 39,000  Level Salt Lake Center
Fri 01:15:59 PM 47.0692 -104.7247 132° Southeast 492 566 39,000  Level Salt Lake Center
Fri 01:17:01 PM 46.9764 -104.5769 133° Southeast 495 570 39,000  Level Salt Lake Center
Fri 01:18:02 PM 46.8850 -104.4322 133° Southeast 492 566 39,000  Level Salt Lake Center
Fri 01:19:04 PM 46.7919 -104.2853 133° Southeast 492 566 39,000  Level Salt Lake Center
Fri 01:20:05 PM 46.6981 -104.1375 133° Southeast 497 572 39,000  Level Salt Lake Center
Fri 01:21:07 PM 46.6056 -103.9919 133° Southeast 496 571 39,000  Level Salt Lake Center
Fri 01:22:09 PM 46.5108 -103.8458 133° Southeast 497 572 39,000  Level Salt Lake Center
Fri 01:23:10 PM 46.3983 -103.6706 133° Southeast 497 572 39,000  Level Salt Lake Center
Fri 01:24:12 PM 46.3058 -103.5278 133° Southeast 494 568 39,000 -49 Level Salt Lake Center
Fri 01:25:13 PM 46.2117 -103.3839 133° Southeast 494 568 38,900  Descending Salt Lake Center
Fri 01:25:45 PM 46.1581 -103.2986 132° Southeast 492 566 39,000 64 Climbing Minneapolis Center
Fri 01:26:47 PM 46.0642 -103.1583 134° Southeast 490 564 39,000  Level Minneapolis Center
Fri 01:27:49 PM 45.9714 -103.0172 133° Southeast 488 562 39,000  Level Minneapolis Center
Fri 01:29:03 PM 45.8781 -102.8750 133° Southeast 489 563 39,000 -44 Level Minneapolis Center
Fri 01:30:05 PM 45.7656 -102.7058 134° Southeast 489 563 38,900  Descending Minneapolis Center
Fri 01:31:07 PM 45.6675 -102.5736 137° Southeast 485 558 39,000 48 Climbing Minneapolis Center
Fri 01:32:09 PM 45.5544 -102.4081 134° Southeast 485 558 39,000  Level Minneapolis Center
Fri 01:33:24 PM 45.4422 -102.2417 134° Southeast 486 559 39,000  Level Minneapolis Center
Fri 01:34:26 PM 45.3486 -102.1039 134° Southeast 486 559 39,000  Level Minneapolis Center
Fri 01:35:28 PM 45.2542 -101.9664 134° Southeast 487 560 39,000  Level Minneapolis Center
Fri 01:36:30 PM 45.1586 -101.8311 135° Southeast 487 560 39,000  Level Minneapolis Center
Fri 01:37:32 PM 45.0431 -101.6714 136° Southeast 486 559 39,000  Level Minneapolis Center
Fri 01:38:34 PM 44.9406 -101.5486 140° Southeast 484 557 39,000  Level Minneapolis Center
Fri 01:39:36 PM 44.8392 -101.4228 139° Southeast 486 559 39,000  Level Minneapolis Center
Fri 01:40:38 PM 44.7386 -101.2989 139° Southeast 485 558 39,000  Level Minneapolis Center
Fri 01:41:40 PM 44.6378 -101.1769 139° Southeast 483 556 39,000  Level Minneapolis Center
Fri 01:42:42 PM 44.5350 -101.0558 140° Southeast 483 556 39,000  Level Minneapolis Center
Fri 01:43:45 PM 44.4128 -100.9083 139° Southeast 484 557 39,000  Level Minneapolis Center
Fri 01:44:47 PM 44.3103 -100.7858 139° Southeast 486 559 39,000  Level Minneapolis Center
Fri 01:45:49 PM 44.2069 -100.6633 140° Southeast 488 562 39,000  Level Minneapolis Center
Fri 01:46:51 PM 44.1050 -100.5419 139° Southeast 486 559 39,000  Level Minneapolis Center
Fri 01:47:53 PM 44.0036 -100.4222 140° Southeast 483 556 39,000  Level Minneapolis Center
Fri 01:48:55 PM 43.9014 -100.3017 140° Southeast 483 556 39,000  Level Minneapolis Center
Fri 01:49:57 PM 43.7772 -100.1578 140° Southeast 486 559 39,000  Level Minneapolis Center
Fri 01:50:59 PM 43.6733 -100.0375 140° Southeast 487 560 39,000  Level Minneapolis Center
Fri 01:52:01 PM 43.5703 -99.9183 140° Southeast 486 559 39,000  Level Minneapolis Center
Fri 01:53:03 PM 43.4664 -99.8006 141° Southeast 485 558 39,000  Level Minneapolis Center
Fri 01:54:05 PM 43.3622 -99.6797 140° Southeast 489 563 39,000  Level Minneapolis Center
Fri 01:55:07 PM 43.2592 -99.5614 140° Southeast 486 559 39,000  Level Minneapolis Center
Fri 01:56:08 PM 43.1333 -99.4194 141° Southeast 488 562 39,000  Level Minneapolis Center
Fri 01:57:10 PM 43.0417 -99.3169 141° Southeast 486 559 39,000  Level Minneapolis Center
Fri 01:58:12 PM 42.9156 -99.1769 141° Southeast 487 560 39,000  Level Minneapolis Center
Fri 01:59:14 PM 42.8097 -99.0592 141° Southeast 490 564 39,000  Level Minneapolis Center
Fri 02:00:16 PM 42.7042 -98.9408 141° Southeast 490 564 39,000  Level Minneapolis Center
Fri 02:01:18 PM 42.5981 -98.8242 141° Southeast 489 563 39,000  Level Minneapolis Center
Fri 02:02:20 PM 42.4925 -98.7100 141° Southeast 486 559 39,000  Level Minneapolis Center
Fri 02:03:22 PM 42.3908 -98.5850 138° Southeast 489 563 39,000  Level Minneapolis Center
Fri 02:04:24 PM 42.2922 -98.4547 136° Southeast 494 568 39,000  Level Minneapolis Center
Fri 02:05:26 PM 42.1936 -98.3278 136° Southeast 490 564 39,000  Level Minneapolis Center
Fri 02:06:28 PM 42.0753 -98.1742 136° Southeast 490 564 39,000  Level Minneapolis Center
Fri 02:07:30 PM 41.9861 -98.0617 137° Southeast 486 559 39,000  Level Minneapolis Center
Fri 02:08:31 PM 41.8872 -97.9356 136° Southeast 489 563 39,000  Level Minneapolis Center
Fri 02:09:33 PM 41.7886 -97.8111 137° Southeast 488 562 39,000  Level Minneapolis Center
Fri 02:10:35 PM 41.6708 -97.6636 137° Southeast 486 559 39,000  Level Minneapolis Center
Fri 02:11:37 PM 41.5711 -97.5386 137° Southeast 490 564 39,000  Level Minneapolis Center
Fri 02:12:39 PM 41.4719 -97.4150 137° Southeast 490 564 39,000  Level Minneapolis Center
Fri 02:13:41 PM 41.3625 -97.3100 144° Southeast 491 565 39,000  Level Minneapolis Center
Fri 02:14:43 PM 41.2517 -97.2100 146° Southeast 484 557 39,000  Level Minneapolis Center
Fri 02:15:45 PM 41.1403 -97.1092 146° Southeast 485 558 39,000  Level Minneapolis Center
Fri 02:16:47 PM 41.0086 -96.9886 145° Southeast 484 557 39,000  Level Minneapolis Center
Fri 02:17:49 PM 40.8986 -96.8883 145° Southeast 483 556 39,000  Level Minneapolis Center
Fri 02:18:51 PM 40.7875 -96.7875 145° Southeast 485 558 39,000  Level Minneapolis Center
Fri 02:19:53 PM 40.6764 -96.6864 145° Southeast 487 560 39,000  Level Minneapolis Center
Fri 02:20:55 PM 40.5656 -96.5861 145° Southeast 487 560 39,000  Level Minneapolis Center
Fri 02:21:57 PM 40.4528 -96.4292 133° Southeast 492 566 39,000  Level Minneapolis Center
Fri 02:22:59 PM 40.3581 -96.2975 133° Southeast 495 570 39,000  Level Minneapolis Center
Fri 02:24:01 PM 40.2628 -96.1681 134° Southeast 496 571 39,000  Level Minneapolis Center
Fri 02:25:03 PM 40.1678 -96.0381 134° Southeast 496 571 39,000  Level Minneapolis Center
Fri 02:26:05 PM 40.0725 -95.9064 134° Southeast 499 574 39,000  Level Minneapolis Center
Fri 02:27:07 PM 39.9767 -95.7761 134° Southeast 499 574 39,000  Level Minneapolis Center
Fri 02:28:12 PM 39.8570 -95.6170 133° Southeast 493 567 39,000  Level FlightAware ADS-B
Fri 02:28:52 PM 39.7920 -95.5300 134° Southeast 494 568 39,000  Level FlightAware ADS-B
Fri 02:29:37 PM 39.7200 -95.4340 134° Southeast 493 567 39,000  Level FlightAware ADS-B
Fri 02:30:17 PM 39.6570 -95.3520 135° Southeast 492 566 39,000  Level FlightAware ADS-B
Fri 02:30:57 PM 39.5940 -95.2670 134° Southeast 493 567 39,000  Level FlightAware ADS-B
Fri 02:31:42 PM 39.5190 -95.1670 134° Southeast 495 570 39,000  Level FlightAware ADS-B
Fri 02:32:22 PM 39.4570 -95.0850 134° Southeast 495 570 39,000  Level FlightAware ADS-B
Fri 02:33:07 PM 39.3850 -94.9920 135° Southeast 495 570 39,000  Level FlightAware ADS-B
Fri 02:33:47 PM 39.3200 -94.9050 134° Southeast 494 568 39,000  Level FlightAware ADS-B
Fri 02:34:27 PM 39.2570 -94.8210 134° Southeast 494 568 39,000  Level FlightAware ADS-B
Fri 02:35:12 PM 39.1840 -94.7270 135° Southeast 494 568 39,000  Level FlightAware ADS-B
Fri 02:35:52 PM 39.1190 -94.6430 135° Southeast 496 571 39,000  Level FlightAware ADS-B
Fri 02:36:37 PM 39.0470 -94.5500 135° Southeast 497 572 39,000  Level FlightAware ADS-B
Fri 02:37:17 PM 38.9830 -94.4670 135° Southeast 494 568 39,000  Level FlightAware ADS-B
Fri 02:38:02 PM 38.9090 -94.3710 135° Southeast 494 568 39,000  Level FlightAware ADS-B
Fri 02:38:42 PM 38.8430 -94.2860 135° Southeast 492 566 39,000  Level FlightAware ADS-B
Fri 02:39:22 PM 38.7790 -94.2030 135° Southeast 492 566 39,000  Level FlightAware ADS-B
Fri 02:40:07 PM 38.7090 -94.1140 135° Southeast 494 568 39,000  Level FlightAware ADS-B
Fri 02:40:47 PM 38.6440 -94.0310 135° Southeast 496 571 39,000  Level FlightAware ADS-B
Fri 02:41:32 PM 38.5690 -93.9360 135° Southeast 497 572 39,000  Level FlightAware ADS-B
Fri 02:42:12 PM 38.5030 -93.8510 135° Southeast 496 571 39,000  Level FlightAware ADS-B
Fri 02:42:52 PM 38.4380 -93.7690 135° Southeast 496 571 39,000  Level FlightAware ADS-B
Fri 02:44:17 PM 38.3040 -93.6000 135° Southeast 495 570 39,000  Level FlightAware ADS-B
Fri 02:45:12 PM 38.2160 -93.4890 135° Southeast 495 570 39,000  Level FlightAware ADS-B
Fri 02:45:57 PM 38.1390 -93.3930 136° Southeast 496 571 39,000  Level FlightAware ADS-B
Fri 02:46:37 PM 38.0720 -93.3100 136° Southeast 498 573 39,000  Level FlightAware ADS-B
Fri 02:47:22 PM 38.0040 -93.2240 135° Southeast 499 574 39,000  Level FlightAware ADS-B
Fri 02:48:02 PM 38.0850 -93.3240 316° Northwest 500 575 39,000  Level FlightAware ADS-B
Fri 02:49:07 PM 38.0990 -93.3420 315° West 499 574 39,000  Level FlightAware ADS-B
Fri 02:50:42 PM 38.0430 -93.2710 135° Southeast 499 574 39,000  Level FlightAware ADS-B
Fri 02:51:32 PM 38.0990 -93.3420 315° West 500 575 39,000  Level FlightAware ADS-B
Fri 02:52:12 PM 38.0430 -93.2710 135° Southeast 500 575 39,000  Level FlightAware ADS-B
Fri 02:52:52 PM 37.9870 -93.2000 135° Southeast 500 575 39,000  Level FlightAware ADS-B
Fri 02:53:37 PM 38.1350 -93.3870 315° West 39,000  Level FlightAware ADS-B
Fri 02:54:52 PM 37.2511 -92.3200 315° West 493 567 39,000  Level Kansas City Center
Fri 02:55:56 PM 37.1503 -92.2044 138° Southeast 492 566 39,000 -1,056 Level Kansas City Center
Fri 02:56:57 PM 37.0492 -92.0883 137° Southeast 493 567 36,800 -2,164 Descending Kansas City Center
Fri 02:57:58 PM 36.9514 -91.9753 137° Southeast 484 557 34,600 -1,968 Descending Kansas City Center
Fri 02:59:02 PM 36.8558 -91.8672 138° Southeast 471 542 32,700 -1,867 Descending Kansas City Center
Fri 02:59:28 PM 36.8028 -91.7975 134° Southeast 468 539 31,800 -1,395 Descending Memphis Center
Fri 03:00:28 PM 36.7103 -91.6847 136° Southeast 462 532 30,700 -1,250 Descending Memphis Center
Fri 03:01:28 PM 36.6133 -91.5694 136° Southeast 467 537 29,300 -1,700 Descending Memphis Center
Fri 03:02:28 PM 36.5208 -91.4517 134° Southeast 472 543 27,300 -1,550 Descending Memphis Center
Fri 03:03:28 PM 36.4342 -91.3525 137° Southeast 472 543 26,200 -1,050 Descending Memphis Center
Fri 03:04:28 PM 36.3411 -91.2406 136° Southeast 472 543 25,200 -1,000 Descending Memphis Center
Fri 03:05:28 PM 36.2522 -91.1342 136° Southeast 462 532 24,200 -1,000 Descending Memphis Center
Fri 03:06:28 PM 36.1589 -91.0306 138° Southeast 456 525 23,200 -950 Descending Memphis Center
Fri 03:07:28 PM 36.0531 -90.9553 150° Southeast 451 519 22,300 -1,150 Descending Memphis Center
Fri 03:08:28 PM 35.9383 -90.9133 164° South 432 497 20,900 -2,000 Descending Memphis Center
Fri 03:09:28 PM 35.8261 -90.8819 167° South 425 489 18,300 -2,150 Descending Memphis Center
Fri 03:10:28 PM 35.7281 -90.8583 169° South 396 456 16,600 -1,500 Descending Memphis Center
Fri 03:11:28 PM 35.6322 -90.8322 168° South 367 422 15,300 -1,700 Descending Memphis Center
Fri 03:12:28 PM 35.5303 -90.8036 167° South 361 415 13,200 -2,050 Descending Memphis Center
Fri 03:13:28 PM 35.4447 -90.7469 152° Southeast 350 403 11,200 -1,600 Descending Memphis Center
Fri 03:14:28 PM 35.4200 -90.6425 106° East 315 362 10,000 -950 Descending Memphis Center
Fri 03:15:28 PM 35.4097 -90.5456 97° East 284 327 9,300 -1,100 Descending Memphis Center
Fri 03:16:28 PM 35.3850 -90.4489 107° East 273 314 7,800 -1,450 Descending Memphis Center
Fri 03:17:28 PM 35.3600 -90.3647 110° East 273 314 6,400 -900 Descending Memphis Center
Fri 03:18:28 PM 35.3411 -90.2781 105° East 262 302 6,000 -200 Descending Memphis Center
Fri 03:19:28 PM 35.3347 -90.1967 95° East 249 287 6,000 -450 Level Memphis Center
Fri 03:20:28 PM 35.3325 -90.1153 92° East 243 280 5,100 -1,098 Descending Memphis Center
Fri 03:20:50 PM 35.3333 -90.0833 88° East 224 258 4,500 -1,098 Descending KMEM
Fri 03:21:50 PM 35.3167 -90.0167 107° East 204 235 3,600 -750 Descending KMEM
Fri 03:22:50 PM 35.2667 -90.0000 165° South 176 203 3,000 -250 Descending KMEM
Fri 03:23:50 PM 35.2167 -89.9833 165° South 177 204 3,100 -100 Climbing KMEM
Fri 03:24:50 PM 35.1833 -89.9833 180° South 151 174 2,800 -500 Descending KMEM
Fri 03:25:50 PM 35.1500 -89.9833 180° South 107 123 2,100 -650 Descending KMEM
Fri 03:26:50 PM 35.1167 -89.9833 180° South 111 128 1,500 -600 Descending KMEM
Fri 03:27:50 PM 35.0833 -89.9833 180° South 120 138 900 -600 Descending KMEM
Fri 03:29:00 PM 35.0424 -89.9767 173° South  Level Estimated
Fri 03:36:00 PM 35.0424 -89.9767 173° South  Level Estimated

Login

Don't have an account? Register now (free) for customized features, flight alerts, and more!